Архив погоды во Владикавказе

Метеограмма Владикавказ
Пятница, 20 Апреля
Время местн. Темп Ветер Видим Явления Облачность нижн/средн/верх Атм. давл. Влжн Точка росы ВНГО R Сост. почвы Tg s
Напр Скр Прв ур.ст ур.м изм
12:00 +13° В,С-В 2 - 20 км - преимущественно облачно 693 753 -0.5 46% +1.7° 1.5 км - - - -
09:00 +10.1° З 1 - 10 км - облачно 694 755 -0.3 67% +4.2° 1 км - - - -
06:00 +7.7° З 1 - 10 км - облачно 694 755 -0.5 79% +4.3° 1 км 0 Сухая (без трещин) +9° -
03:00 +8.3° В 1 - 10 км - облачно 695 756 -1.3 75% +4.2° 1 км - - - -
00:00 +8.2° С-В 1 - 10 км - облачно 696 757 -0.8 76% +4.3° 1 км - - - -
Четверг, 19 Апреля
Время местн. Темп Ветер Видим Явления Облачность нижн/средн/верх Атм. давл. Влжн Точка росы ВНГО R Сост. почвы Tg s
Напр Скр Прв ур.ст ур.м изм
21:00 +11.7° С,С-З 2 - 10 км - ясно 697 757 +1.4 59% +4° более 2.5 км - - - -
18:00 +15.8° В 3 - 20 км - переменная облачность 696 755 -1.7 39% +1.8° 1 км - - - -
15:00 +17.7° В 2 - 20 км - преимущественно облачно 697 756 -1.2 30% -0.3° 1 км - - - -
12:00 +16.9° С-З 1 - 20 км - преимущественно облачно 700 759 +0.2 50% +6.4° 1 км - - - -
09:00 +16.2° С-З 1 - 20 км - облачно с прояснениями 700 760 -0.9 34% +0.5° более 2.5 км - - - -
06:00 +8.3° Ю 1 - 20 км - переменная облачность 701 762 -1.4 60% +0.9° - - Сухая (без трещин) - -
03:00 +8.3° штиль 0 - 10 км - ясно 702 764 -0.8 63% +1.7° более 2.5 км - - - -
00:00 +9.8° штиль 0 - 10 км - переменная облачность 703 764 -0.8 57% +1.8° - - - - -
Среда, 18 Апреля
Время местн. Темп Ветер Видим Явления Облачность нижн/средн/верх Атм. давл. Влжн Точка росы ВНГО R Сост. почвы Tg s
Напр Скр Прв ур.ст ур.м изм
21:00 +11.9° Ю 1 - 10 км - облачно с прояснениями 703 765 -0.2 51% +2.2° 1 км - - - -
18:00 +16.3° В,С-В 1 - 20 км - облачно 704 764 -0.4 33% +0.2° 1 км 0 - - -
15:00 +19.3° С,С-В 2 - 20 км - облачно 704 764 -1.2 22% -2.7° 1 км - - - -
12:00 +18.3° С-З 2 - 20 км - облачно 705 765 -0.8 24% -2.4° 1 км - - - -
09:00 +15.5° В 1 - 20 км - переменная облачность 706 766 -0.3 30% -1.9° более 2.5 км - - - -
06:00 +6.3° Ю 2 - 20 км - незначительная облачность 706 769 -0.2 58% -1.4° более 2.5 км 0 Влажная (без луж) +2° -
03:00 +5.4° Ю 1 - 10 км - ясно 706 769 +0.2 65% -0.7° более 2.5 км - - - -
00:00 +6.8° штиль 0 - 10 км - ясно 706 769 +0.4 60% -0.5° более 2.5 км - - - -
Вторник, 17 Апреля
Время местн. Темп Ветер Видим Явления Облачность нижн/средн/верх Атм. давл. Влжн Точка росы ВНГО R Сост. почвы Tg s
Напр Скр Прв ур.ст ур.м изм
21:00 +9.7° Ю 1 - 10 км - ясно 706 768 +0.8 46% -1.2° более 2.5 км - - - -
18:00 +14.7° В 1 - 20 км - переменная облачность 705 766 +0.2 29% -3.3° - - - - -
15:00 +16.2° С 2 - 20 км - переменная облачность 705 765 -0.6 25% -3.9° 1.5 км - - - -
12:00 +15.3° С-З 1 - 20 км - переменная облачность 705 766 -0.6 26% -4.1° 1.5 км - - - -
09:00 +12° С-З 1 - более 50 км - переменная облачность 706 767 +0.5 40% -1.2° более 2.5 км - - - -